createdAt,value
2018-08-03T12:34:08.982Z,65.7
2018-08-03T12:34:58.496Z,65.8
2018-08-03T12:35:48.828Z,65.8
2018-08-03T12:36:39.174Z,65.9
2018-08-03T12:37:29.236Z,65.9
2018-08-03T12:38:19.300Z,65.9
2018-08-03T12:39:09.370Z,65.9
2018-08-03T12:39:59.446Z,66
2018-08-03T12:40:49.502Z,66
2018-08-03T12:41:39.559Z,66
2018-08-03T12:42:29.617Z,66
2018-08-03T12:43:19.927Z,66.1
2018-08-03T12:44:09.780Z,66.1
2018-08-03T12:44:59.819Z,66.1
2018-08-03T12:45:49.936Z,66.1
2018-08-03T12:46:39.958Z,66.1
2018-08-03T12:47:29.750Z,66.1
2018-08-03T12:48:20.078Z,66.2
2018-08-03T12:49:10.164Z,66.2
2018-08-03T12:50:00.209Z,66.1
2018-08-03T12:50:50.018Z,65.9
2018-08-03T12:51:40.615Z,65.8
2018-08-03T12:52:30.596Z,65.9
2018-08-03T12:53:20.212Z,66.1
2018-08-03T12:54:10.541Z,66.2
2018-08-03T12:55:00.621Z,66.2
2018-08-03T12:55:50.684Z,66.2
2018-08-03T12:56:40.599Z,66.2
2018-08-03T12:57:30.816Z,66.2
2018-08-03T12:58:20.586Z,66.2
2018-08-03T12:59:10.687Z,66.2
2018-08-03T13:00:00.713Z,66.1
2018-08-03T13:00:51.066Z,66
2018-08-03T13:01:41.124Z,66
2018-08-03T13:02:31.313Z,66.1
2018-08-03T13:03:21.252Z,66.1
2018-08-03T13:04:28.897Z,66.2
2018-08-03T13:05:18.631Z,66.1
2018-08-03T13:06:08.700Z,66.1
2018-08-03T13:06:58.766Z,66.1
2018-08-03T13:07:49.934Z,66.1
2018-08-03T13:08:38.885Z,66.1
2018-08-03T13:09:29.284Z,66.1
2018-08-03T13:10:19.308Z,66.1
2018-08-03T13:11:09.366Z,66.1
2018-08-03T13:11:59.432Z,66.1
2018-08-03T13:12:49.488Z,66.1
2018-08-03T13:13:39.274Z,66
2018-08-03T13:14:29.676Z,66.1
2018-08-03T13:15:19.739Z,66
2018-08-03T13:16:09.764Z,66
2018-08-03T13:16:59.825Z,66
2018-08-03T13:17:49.886Z,66
2018-08-03T13:18:39.961Z,66
2018-08-03T13:19:30.018Z,65.9
2018-08-03T13:20:20.245Z,65.9
2018-08-03T13:21:10.260Z,65.9
2018-08-03T13:22:00.206Z,65.9
2018-08-03T13:22:50.324Z,65.9
2018-08-03T13:23:39.792Z,65.9
2018-08-03T13:24:30.140Z,65.9
2018-08-03T13:25:19.901Z,65.9
2018-08-03T13:26:10.266Z,65.9
2018-08-03T13:27:00.599Z,65.9
2018-08-03T13:27:50.388Z,65.9
2018-08-03T13:28:40.735Z,65.9
2018-08-03T13:29:31.098Z,65.8
2018-08-03T13:30:20.868Z,65.8
2018-08-03T13:31:10.927Z,65.8
2018-08-03T13:32:00.708Z,65.8
2018-08-03T13:32:51.050Z,65.8
2018-08-03T13:33:40.835Z,65.8
2018-08-03T13:34:31.174Z,65.7
2018-08-03T13:35:21.244Z,65.7
2018-08-03T13:36:11.517Z,65.7
2018-08-03T13:37:01.377Z,65.6
2018-08-03T13:37:51.442Z,65.6
2018-08-03T13:38:41.514Z,65.6
2018-08-03T13:39:31.571Z,65.5
2018-08-03T13:40:21.642Z,65.5
2018-08-03T13:41:11.712Z,65.5
2018-08-03T13:42:01.772Z,65.4
2018-08-03T13:42:51.633Z,65.4
2018-08-03T13:43:41.897Z,65.4
2018-08-03T13:44:32.146Z,65.3
2018-08-03T13:45:21.491Z,65.3
2018-08-03T13:46:12.097Z,65.3
2018-08-03T13:47:02.166Z,65.2
2018-08-03T13:47:52.229Z,65.1
2018-08-03T13:48:42.315Z,65.1
2018-08-03T13:49:32.092Z,64.9
2018-08-03T13:50:22.661Z,64.8
2018-08-03T13:51:12.490Z,64.6
2018-08-03T13:52:02.571Z,64.6
2018-08-03T13:52:52.627Z,64.6
2018-08-03T13:53:42.685Z,64.6
2018-08-03T13:54:32.758Z,64.6
2018-08-03T13:55:22.825Z,64.6
2018-08-03T13:56:12.907Z,64.5
2018-08-03T13:57:02.955Z,64.4
2018-08-03T13:57:52.856Z,64.4
2018-08-03T13:58:42.803Z,64.4
2018-08-03T13:59:33.151Z,64.3
2018-08-03T14:00:22.936Z,64.3
2018-08-03T14:01:12.998Z,64.2
2018-08-03T14:02:03.340Z,64.1
2018-08-03T14:02:53.407Z,64.1
2018-08-03T14:03:43.195Z,64.1
2018-08-03T14:04:33.545Z,64
2018-08-03T14:05:23.614Z,63.9
2018-08-03T14:06:13.668Z,63.9
2018-08-03T14:07:03.738Z,63.8
2018-08-03T14:07:53.815Z,63.8
2018-08-03T14:08:43.888Z,63.7
2018-08-03T14:09:33.927Z,63.6
2018-08-03T14:10:24.002Z,63.6
2018-08-03T14:11:14.068Z,63.5
2018-08-03T14:12:04.200Z,63.4
2018-08-03T14:12:54.192Z,63.4
2018-08-03T14:13:44.255Z,63.3
2018-08-03T14:14:33.758Z,63.3
2018-08-03T14:15:24.133Z,63.2
2018-08-03T14:16:14.458Z,63.1
2018-08-03T14:17:04.533Z,63.1
2018-08-03T14:17:54.602Z,63
2018-08-03T14:18:44.711Z,62.9
2018-08-03T14:19:34.745Z,62.9
2018-08-03T14:20:24.518Z,62.8
2018-08-03T14:21:14.860Z,62.7
2018-08-03T14:22:04.702Z,62.6
2018-08-03T14:22:54.978Z,62.6
2018-08-03T14:23:44.758Z,62.5
2018-08-03T14:24:34.843Z,62.4
2018-08-03T14:25:25.392Z,62.3
2018-08-03T14:26:15.257Z,62.3
2018-08-03T14:27:05.124Z,62.2
2018-08-03T14:27:55.395Z,62.1
2018-08-03T14:28:45.430Z,62.1
2018-08-03T14:29:35.222Z,61.9
2018-08-03T14:30:25.588Z,61.9
2018-08-03T14:31:15.775Z,61.8
2018-08-03T14:32:05.728Z,61.7
2018-08-03T14:32:55.227Z,61.6
2018-08-03T14:33:45.849Z,61.6
2018-08-03T14:34:35.892Z,61.4
2018-08-03T14:35:25.960Z,61.4
2018-08-03T14:36:15.741Z,61.3
2018-08-03T14:37:06.095Z,61.3
2018-08-03T14:37:56.157Z,61.1
2018-08-03T14:38:46.226Z,61.1
2018-08-03T14:39:36.295Z,61
2018-08-03T14:40:26.360Z,60.9
2018-08-03T14:41:16.599Z,60.8
2018-08-03T14:42:06.484Z,60.8
2018-08-03T14:42:56.258Z,60.6
2018-08-03T14:43:46.604Z,60.6
2018-08-03T14:44:36.673Z,60.4
2018-08-03T14:45:26.729Z,60.4
2018-08-03T14:46:16.839Z,60.3
2018-08-03T14:47:06.590Z,60.2
2018-08-03T14:47:56.926Z,60.1
2018-08-03T14:48:47.007Z,60.1
2018-08-03T14:49:37.069Z,59.9
2018-08-03T14:50:27.123Z,59.9
2018-08-03T14:51:16.908Z,59.8
2018-08-03T14:52:06.992Z,59.7
2018-08-03T14:52:57.328Z,59.6
2018-08-03T14:53:47.389Z,59.5
2018-08-03T14:54:37.463Z,59.4
2018-08-03T14:55:27.520Z,59.3
2018-08-03T14:56:17.592Z,59.3
2018-08-03T14:57:07.376Z,59.1
2018-08-03T14:57:57.707Z,59.1
2018-08-03T14:58:47.801Z,59
2018-08-03T14:59:37.581Z,58.9
2018-08-03T15:00:27.937Z,58.8
2018-08-03T15:01:18.000Z,58.7
2018-08-03T15:02:08.042Z,58.6
2018-08-03T15:03:48.199Z,58.4
2018-08-03T15:04:38.255Z,58.4
2018-08-03T15:05:28.310Z,58.3
2018-08-03T15:06:18.390Z,58.2
2018-08-03T15:07:08.164Z,58.1
2018-08-03T15:07:58.496Z,58
2018-08-03T15:08:48.595Z,57.9
2018-08-03T15:09:38.660Z,57.9
2018-08-03T15:11:18.772Z,57.7
2018-08-03T15:12:08.565Z,57.6
2018-08-03T15:12:58.922Z,57.5
2018-08-03T15:13:48.971Z,57.4
2018-08-03T15:14:39.028Z,57.3
2018-08-03T15:15:29.112Z,57.3
2018-08-03T15:16:19.168Z,57.1
2018-08-03T15:17:09.263Z,56.6
2018-08-03T15:17:59.296Z,56.4
2018-08-03T15:18:49.346Z,56.1
2018-08-03T15:19:39.574Z,55.8
2018-08-03T15:20:29.480Z,55.4
2018-08-03T15:21:19.561Z,55.1
2018-08-03T15:22:09.354Z,54.7
2018-08-03T15:22:59.684Z,54.3
2018-08-03T15:23:49.739Z,53.9
2018-08-03T15:24:39.816Z,53.4
2018-08-03T15:25:29.870Z,53.1
2018-08-03T15:26:19.954Z,52.6
2018-08-03T15:27:09.727Z,52.3
2018-08-03T15:27:59.816Z,51.9
2018-08-03T15:28:50.290Z,51.5
2018-08-03T15:29:40.200Z,51.1
2018-08-03T15:30:30.283Z,50.8
2018-08-03T15:31:20.341Z,50.4
2018-08-03T15:32:10.128Z,50.1
2018-08-03T15:33:00.195Z,49.8
2018-08-03T15:33:50.519Z,49.4
2018-08-03T15:34:40.584Z,49.1
2018-08-03T15:35:30.650Z,48.8
2018-08-03T15:36:20.736Z,48.4
2018-08-03T15:37:10.520Z,48.1
2018-08-03T15:38:00.853Z,47.8
2018-08-03T15:38:50.917Z,47.5
2018-08-03T15:39:40.710Z,47.2
2018-08-03T15:40:30.804Z,46.9
2018-08-03T15:41:21.123Z,46.6
2018-08-03T15:42:11.185Z,46.3
2018-08-03T15:43:01.246Z,46.1
2018-08-03T15:43:50.741Z,45.8
2018-08-03T15:44:41.400Z,45.5
2018-08-03T15:45:31.443Z,45.3
2018-08-03T15:46:21.506Z,45
2018-08-03T15:47:11.662Z,44.8
2018-08-03T15:48:01.652Z,44.5
2018-08-03T15:48:51.418Z,44.3
2018-08-03T15:49:41.784Z,44
2018-08-03T15:50:31.368Z,43.8
2018-08-03T15:51:21.905Z,43.5
2018-08-03T15:52:11.958Z,43.3
2018-08-03T15:53:02.028Z,43.1
2018-08-03T15:53:52.095Z,42.8
2018-08-03T15:54:41.889Z,42.6
2018-08-03T15:55:32.218Z,42.4
2018-08-03T15:56:22.305Z,42.2
2018-08-03T15:57:12.350Z,41.9
2018-08-03T15:58:02.145Z,41.8
2018-08-03T15:58:52.495Z,41.5
2018-08-03T15:59:42.555Z,41.3
2018-08-03T19:18:19.162Z,22.3
2018-08-03T19:19:09.227Z,22.3
2018-08-03T19:19:59.529Z,22.3
2018-08-03T19:20:49.372Z,22.3
2018-08-03T19:21:39.579Z,22.2
2018-08-03T19:22:28.940Z,22.2
2018-08-03T19:23:19.682Z,22.1
2018-08-03T19:24:09.607Z,22.1
2018-08-03T19:24:59.693Z,22.1
2018-08-03T19:25:49.748Z,22.1
2018-08-03T19:26:39.542Z,22
2018-08-03T19:27:29.621Z,22
2018-08-03T19:28:19.673Z,22
2018-08-03T19:29:10.022Z,21.9
2018-08-03T19:29:59.806Z,21.9
2018-08-03T19:30:50.140Z,21.9
2018-08-03T19:31:39.933Z,21.9
2018-08-03T19:32:29.989Z,21.9
2018-08-03T19:33:21.013Z,21.8
2018-08-03T19:34:10.419Z,21.8
2018-08-03T19:35:00.458Z,21.8
2018-08-03T19:35:50.539Z,21.8
2018-08-03T19:36:40.311Z,21.8
2018-08-03T19:37:30.655Z,21.7
2018-08-03T19:38:20.721Z,21.7
2018-08-03T19:39:10.789Z,21.7
2018-08-03T19:40:00.845Z,21.6
2018-08-03T19:40:50.920Z,21.6
2018-08-03T19:41:40.988Z,21.6
2018-08-03T19:42:31.062Z,21.6
2018-08-03T19:43:21.129Z,21.6
2018-08-03T19:44:11.196Z,21.5
2018-08-03T19:45:01.142Z,21.5
2018-08-03T19:45:51.298Z,21.4
2018-08-03T19:46:41.603Z,21.4
2018-08-03T19:47:31.167Z,21.4
2018-08-03T19:48:21.628Z,21.4
2018-08-03T19:49:11.580Z,21.4
2018-08-03T19:50:16.288Z,21.4
2018-08-03T19:50:51.907Z,21.4
2018-08-03T19:51:41.481Z,21.4
2018-08-03T19:52:46.415Z,21.3
2018-08-03T19:53:21.876Z,21.3
2018-08-03T19:54:11.959Z,21.3
2018-08-03T19:55:01.736Z,21.3
2018-08-03T19:55:52.074Z,21.3
2018-08-03T19:56:42.142Z,21.3
2018-08-03T19:57:32.216Z,21.2
2018-08-03T19:58:22.383Z,21.2
2018-08-03T19:59:12.655Z,21.2
2018-08-03T20:00:02.404Z,21.2
2018-08-03T20:00:52.502Z,21.2
2018-08-03T20:05:52.569Z,21.1
2018-08-03T20:06:43.058Z,21.1
2018-08-03T20:07:32.419Z,21.1
2018-08-03T20:08:23.069Z,21.1
2018-08-03T20:09:13.130Z,21
2018-08-03T20:10:03.208Z,21.1
2018-08-03T20:10:53.236Z,21.1
2018-08-03T20:11:43.027Z,21
2018-08-03T20:12:33.422Z,21
2018-08-03T20:13:23.277Z,20.9
2018-08-03T20:14:13.218Z,20.9
2018-08-03T20:15:03.563Z,20.9
2018-08-03T20:15:53.645Z,20.9
2018-08-03T20:16:43.710Z,20.9
2018-08-03T20:17:33.472Z,20.9
2018-08-03T20:18:23.560Z,20.9
2018-08-03T20:19:13.901Z,20.9
2018-08-03T20:20:03.951Z,20.9
2018-08-03T20:21:08.671Z,20.9
2018-08-03T20:21:43.845Z,20.8
2018-08-03T20:22:34.141Z,20.8
2018-08-03T20:23:24.234Z,20.8
2018-08-03T20:24:14.265Z,20.8
2018-08-03T20:25:04.349Z,20.8
2018-08-03T20:25:54.394Z,20.8
2018-08-03T20:26:44.479Z,20.8
2018-08-03T20:27:34.528Z,20.8
2018-08-03T20:28:38.687Z,20.8
2018-08-03T20:29:14.380Z,20.7
2018-08-03T20:30:04.719Z,20.7
2018-08-03T20:31:09.446Z,20.7
2018-08-03T20:31:44.856Z,20.7
2018-08-03T20:32:34.649Z,20.7
2018-08-03T20:33:25.203Z,20.7
2018-08-03T20:34:14.771Z,20.6
2018-08-03T20:35:04.559Z,20.6
2018-08-03T20:35:55.160Z,20.6
2018-08-03T20:36:45.241Z,20.6
2018-08-03T20:37:35.294Z,20.6
2018-08-03T20:38:25.351Z,20.6
2018-08-03T20:39:15.732Z,20.6
2018-08-03T20:40:05.251Z,20.5
2018-08-03T20:40:55.780Z,20.5
2018-08-03T20:41:45.629Z,20.5
2018-08-03T20:42:35.707Z,20.5
2018-08-03T20:43:25.508Z,20.4
2018-08-03T20:44:15.561Z,20.4
2018-08-03T20:45:05.663Z,20.4
2018-08-03T20:45:55.976Z,20.4
2018-08-03T20:46:46.012Z,20.4
2018-08-03T20:47:36.100Z,20.4
2018-08-03T20:48:26.163Z,20.4
2018-08-03T20:49:16.222Z,20.4
2018-08-03T20:50:05.995Z,20.3
2018-08-03T20:50:56.364Z,20.3
2018-08-03T20:51:46.408Z,20.3
2018-08-03T20:52:36.190Z,20.3
2018-08-03T20:53:26.261Z,20.3
2018-08-03T20:54:16.589Z,20.3
2018-08-03T20:55:06.661Z,20.2
2018-08-03T20:55:56.751Z,20.3
2018-08-03T20:56:46.509Z,20.2
2018-08-03T20:57:36.861Z,20.2
2018-08-03T20:58:27.696Z,20.1
2018-08-03T20:59:16.986Z,20.1
2018-08-03T21:00:21.731Z,20.1
2018-08-03T21:00:57.176Z,20.1
2018-08-03T21:01:47.174Z,20.1
2018-08-03T21:02:37.473Z,20.1
2018-08-03T21:03:27.299Z,20.1
2018-08-03T21:04:17.371Z,20
2018-08-03T21:05:07.436Z,20
2018-08-03T21:05:57.507Z,20
2018-08-03T21:06:47.568Z,19.9
2018-08-03T21:07:37.389Z,19.9
2018-08-03T21:08:27.730Z,19.9
2018-08-03T21:09:17.756Z,19.9
2018-08-03T21:10:07.822Z,19.9
2018-08-03T21:10:57.889Z,19.8
2018-08-03T21:11:48.005Z,19.8
2018-08-03T21:12:38.238Z,19.8
2018-08-03T21:13:28.105Z,19.8
2018-08-03T21:14:18.151Z,19.8
2018-08-03T21:15:07.659Z,19.8
2018-08-03T21:15:58.305Z,19.7
2018-08-03T21:16:48.364Z,19.7
2018-08-03T21:17:38.415Z,19.7
2018-08-03T21:18:28.493Z,19.6
2018-08-03T21:19:18.544Z,19.6
2018-08-03T21:20:08.613Z,19.6
2018-08-03T21:20:58.835Z,19.6
2018-08-03T21:21:48.766Z,19.6
2018-08-03T21:22:38.816Z,19.6
2018-08-03T21:23:28.868Z,19.5
2018-08-03T21:24:18.935Z,19.5
2018-08-03T21:25:09.016Z,19.4
2018-08-03T21:25:59.060Z,19.4
2018-08-03T21:26:49.121Z,19.4
2018-08-03T21:27:39.198Z,19.4
2018-08-03T21:28:29.249Z,19.4
2018-08-03T21:29:19.035Z,19.4
2018-08-03T21:30:09.531Z,19.4
2018-08-03T21:30:59.451Z,19.3
2018-08-03T21:32:04.169Z,19.3
2018-08-03T21:32:39.588Z,19.3
2018-08-03T21:33:29.634Z,19.3
2018-08-03T21:34:19.438Z,19.2
2018-08-03T21:35:09.773Z,19.2
2018-08-03T21:35:59.570Z,19.2
2018-08-03T21:37:04.274Z,19.2
2018-08-03T21:37:40.197Z,19.1
2018-08-03T21:38:30.041Z,19.1
2018-08-03T21:40:10.165Z,19.1
2018-08-03T21:41:00.218Z,19.1
2018-08-03T21:41:50.283Z,19
2018-08-03T21:42:40.409Z,19
2018-08-03T21:43:30.631Z,18.9
2018-08-03T21:44:20.527Z,18.9
2018-08-03T21:45:10.544Z,18.9
2018-08-03T21:46:00.657Z,18.9
2018-08-03T21:46:50.674Z,18.9
2018-08-03T21:47:40.726Z,18.8
2018-08-03T21:48:30.798Z,18.8
2018-08-03T21:49:20.878Z,18.8
2018-08-03T21:50:10.649Z,18.8
2018-08-03T21:51:00.731Z,18.8
2018-08-03T21:54:21.281Z,18.6
2018-08-03T21:55:10.778Z,18.6
2018-08-03T21:56:01.416Z,18.6
2018-08-03T21:56:51.473Z,18.6
2018-08-03T21:57:41.241Z,18.6
2018-08-03T21:58:31.576Z,18.6
2018-08-03T21:59:21.393Z,18.5
2018-08-03T22:00:11.429Z,18.5
2018-08-03T22:01:01.792Z,18.5
2018-08-03T22:01:51.848Z,18.4
2018-08-03T22:02:41.923Z,18.4
2018-08-03T22:03:32.021Z,18.4
2018-08-03T22:04:21.766Z,18.4
2018-08-03T22:05:12.117Z,18.4
2018-08-03T22:06:16.890Z,18.3
2018-08-03T22:06:51.973Z,18.3
2018-08-03T22:07:42.322Z,18.3
2018-08-03T22:08:32.401Z,18.3
2018-08-03T22:09:22.465Z,18.3
2018-08-03T22:10:12.529Z,18.3
2018-08-03T22:11:02.584Z,18.2
2018-08-03T22:11:52.666Z,18.2
2018-08-03T22:12:42.410Z,18.2
2018-08-03T22:13:32.487Z,18.1
2018-08-03T22:14:22.826Z,18.1
2018-08-03T22:15:12.878Z,18.1
2018-08-03T22:16:02.939Z,18.1
2018-08-03T22:16:53.041Z,18.1
2018-08-03T22:17:43.121Z,18.1
2018-08-03T22:18:33.169Z,18
2018-08-03T22:19:23.239Z,18
2018-08-03T22:20:13.274Z,18
2018-08-03T22:21:03.347Z,17.9
2018-08-03T22:21:53.459Z,17.9
2018-08-03T22:22:43.731Z,17.9
2018-08-03T22:23:33.770Z,17.9
2018-08-03T22:24:23.841Z,17.9
2018-08-03T22:25:13.733Z,17.9
2018-08-03T22:26:03.754Z,17.9
2018-08-03T22:26:53.836Z,17.8
2018-08-03T22:27:43.923Z,17.8
2018-08-03T22:28:33.738Z,17.8
2018-08-03T22:29:23.985Z,17.8
2018-08-03T22:30:14.073Z,17.8
2018-08-03T22:31:04.149Z,17.8
2018-08-03T22:31:54.186Z,17.8
2018-08-03T22:32:44.246Z,17.8
2018-08-03T22:33:34.028Z,17.8
2018-08-03T22:34:24.390Z,17.7
2018-08-03T22:35:14.461Z,17.7
2018-08-03T22:36:04.228Z,17.7
2018-08-03T22:36:54.560Z,17.7
2018-08-03T22:37:44.626Z,17.6
2018-08-03T22:38:34.902Z,17.6
2018-08-03T22:39:24.805Z,17.6
2018-08-03T22:40:14.837Z,17.6
2018-08-03T22:41:04.887Z,17.6
2018-08-03T22:41:55.200Z,17.6
2018-08-03T22:42:44.899Z,17.6
2018-08-03T22:43:35.080Z,17.6
2018-08-03T22:44:24.883Z,17.6
2018-08-03T22:45:14.948Z,17.6
2018-08-03T22:46:05.297Z,17.6
2018-08-03T22:47:09.940Z,17.6
2018-08-03T22:47:45.406Z,17.6
2018-08-03T22:48:35.475Z,17.5
2018-08-03T22:49:25.816Z,17.5
2018-08-03T22:50:15.320Z,17.5
2018-08-03T22:51:05.677Z,17.5
2018-08-03T22:51:55.411Z,17.5
2018-08-03T22:52:45.506Z,17.5
2018-08-03T22:53:35.899Z,17.5
2018-08-03T22:54:25.948Z,17.5
2018-08-03T22:55:15.704Z,17.4
2018-08-03T22:56:06.051Z,17.4
2018-08-03T22:56:56.346Z,17.4
2018-08-03T22:57:46.196Z,17.4
2018-08-03T22:58:35.963Z,17.4
2018-08-03T22:59:26.039Z,17.4
2018-08-03T23:00:16.378Z,17.4
2018-08-03T23:01:06.734Z,17.4
2018-08-03T23:01:56.522Z,17.4
2018-08-03T23:02:46.285Z,17.4
2018-08-03T23:03:36.621Z,17.4
2018-08-03T23:05:16.493Z,17.4
2018-08-03T23:06:06.829Z,17.4
2018-08-03T23:06:56.888Z,17.4
2018-08-03T23:07:46.957Z,17.4
2018-08-03T23:08:36.742Z,17.4
2018-08-03T23:09:27.093Z,17.4
2018-08-03T23:10:17.146Z,17.3
2018-08-03T23:11:07.229Z,17.3
2018-08-03T23:11:57.016Z,17.3
2018-08-03T23:12:47.363Z,17.3
2018-08-03T23:13:37.133Z,17.3
2018-08-03T23:14:27.209Z,17.3
2018-08-03T23:15:17.545Z,17.3
2018-08-03T23:16:07.613Z,17.3
2018-08-03T23:16:57.677Z,17.3
2018-08-03T23:17:47.738Z,17.3
2018-08-03T23:18:37.800Z,17.3
2018-08-03T23:19:27.899Z,17.3
2018-08-03T23:20:17.668Z,17.3
2018-08-03T23:21:07.994Z,17.3
2018-08-03T23:21:58.120Z,17.3
2018-08-03T23:22:47.860Z,17.3
2018-08-03T23:23:38.223Z,17.3
2018-08-03T23:24:27.970Z,17.2
2018-08-03T23:25:18.318Z,17.2
2018-08-03T23:26:08.434Z,17.3
2018-08-03T23:26:58.172Z,17.2
2018-08-03T23:27:48.233Z,17.2
2018-08-03T23:28:38.571Z,17.2
2018-08-03T23:29:28.363Z,17.2
2018-08-03T23:30:18.706Z,17.2
2018-08-03T23:31:08.793Z,17.2
2018-08-03T23:31:58.581Z,17.1
2018-08-03T23:32:48.906Z,17.1
2018-08-03T23:33:38.955Z,17.1
2018-08-03T23:34:29.026Z,17.1
2018-08-03T23:35:19.093Z,17.1
2018-08-03T23:36:09.159Z,17.1
2018-08-03T23:36:59.236Z,17.1
2018-08-03T23:37:49.291Z,17.1
2018-08-03T23:38:39.365Z,17.1
2018-08-03T23:39:29.155Z,17.1
2018-08-03T23:40:19.478Z,17.1
2018-08-03T23:41:09.566Z,17.1
2018-08-03T23:41:59.329Z,17.1
2018-08-03T23:42:49.700Z,17.1
2018-08-03T23:43:39.743Z,17.1
2018-08-03T23:44:29.819Z,17.1
2018-08-03T23:45:19.889Z,17.1
2018-08-03T23:50:20.258Z,16.9
2018-08-03T23:52:00.392Z,16.9
2018-08-03T23:52:50.459Z,16.9
2018-08-03T23:53:40.247Z,16.9
2018-08-03T23:54:30.594Z,16.9
2018-08-03T23:55:20.367Z,16.9
2018-08-03T23:56:10.432Z,16.9
2018-08-03T23:57:00.770Z,16.9
2018-08-03T23:57:51.083Z,16.9
2018-08-03T23:58:40.680Z,16.9
2018-08-03T23:59:31.032Z,16.9
